sensor_id;sensor_type;location;lat;lon;timestamp;P1;durP1;ratioP1;P2;durP2;ratioP2
41887;SDS011;63122;52.424;13.458;2023-02-01T00:02:16;13.97;;;2.80;;
41887;SDS011;63122;52.424;13.458;2023-02-01T00:04:49;27.87;;;4.47;;
41887;SDS011;63122;52.424;13.458;2023-02-01T00:07:19;21.27;;;4.13;;
41887;SDS011;63122;52.424;13.458;2023-02-01T00:09:49;32.07;;;4.40;;
41887;SDS011;63122;52.424;13.458;2023-02-01T00:12:19;22.40;;;4.20;;
41887;SDS011;63122;52.424;13.458;2023-02-01T00:14:49;20.43;;;2.97;;
41887;SDS011;63122;52.424;13.458;2023-02-01T00:17:19;16.33;;;2.70;;
41887;SDS011;63122;52.424;13.458;2023-02-01T00:19:52;23.50;;;3.93;;
41887;SDS011;63122;52.424;13.458;2023-02-01T00:22:22;20.10;;;3.27;;
41887;SDS011;63122;52.424;13.458;2023-02-01T00:24:53;28.53;;;3.47;;
41887;SDS011;63122;52.424;13.458;2023-02-01T00:27:23;21.77;;;3.17;;
41887;SDS011;63122;52.424;13.458;2023-02-01T00:29:54;22.57;;;3.07;;
41887;SDS011;63122;52.424;13.458;2023-02-01T00:32:25;24.97;;;3.40;;
41887;SDS011;63122;52.424;13.458;2023-02-01T00:34:58;23.63;;;3.07;;
41887;SDS011;63122;52.424;13.458;2023-02-01T00:37:28;15.60;;;2.70;;
41887;SDS011;63122;52.424;13.458;2023-02-01T00:39:59;10.50;;;2.53;;
41887;SDS011;63122;52.424;13.458;2023-02-01T00:42:29;25.67;;;3.80;;
41887;SDS011;63122;52.424;13.458;2023-02-01T00:45:00;21.63;;;3.10;;
41887;SDS011;63122;52.424;13.458;2023-02-01T00:47:30;24.57;;;3.17;;
41887;SDS011;63122;52.424;13.458;2023-02-01T00:50:03;26.13;;;3.07;;
41887;SDS011;63122;52.424;13.458;2023-02-01T00:52:34;21.27;;;2.90;;
41887;SDS011;63122;52.424;13.458;2023-02-01T00:55:04;24.43;;;3.00;;
41887;SDS011;63122;52.424;13.458;2023-02-01T00:57:35;15.37;;;3.30;;
41887;SDS011;63122;52.424;13.458;2023-02-01T01:00:06;15.53;;;2.37;;
41887;SDS011;63122;52.424;13.458;2023-02-01T01:02:37;17.50;;;2.63;;
41887;SDS011;63122;52.424;13.458;2023-02-01T01:05:10;20.73;;;3.10;;
41887;SDS011;63122;52.424;13.458;2023-02-01T01:07:40;26.27;;;3.80;;
41887;SDS011;63122;52.424;13.458;2023-02-01T01:10:10;15.97;;;3.07;;
41887;SDS011;63122;52.424;13.458;2023-02-01T01:12:40;15.80;;;2.10;;
41887;SDS011;63122;52.424;13.458;2023-02-01T01:15:11;15.20;;;2.60;;
41887;SDS011;63122;52.424;13.458;2023-02-01T01:17:41;14.80;;;2.47;;
41887;SDS011;63122;52.424;13.458;2023-02-01T01:20:14;14.23;;;2.50;;
41887;SDS011;63122;52.424;13.458;2023-02-01T01:22:45;21.77;;;3.00;;
41887;SDS011;63122;52.424;13.458;2023-02-01T01:25:15;17.53;;;3.03;;
41887;SDS011;63122;52.424;13.458;2023-02-01T01:27:45;18.80;;;2.70;;
41887;SDS011;63122;52.424;13.458;2023-02-01T01:30:16;20.00;;;3.40;;
41887;SDS011;63122;52.424;13.458;2023-02-01T01:32:46;16.53;;;2.93;;
41887;SDS011;63122;52.424;13.458;2023-02-01T01:35:19;16.07;;;2.63;;
41887;SDS011;63122;52.424;13.458;2023-02-01T01:37:49;18.30;;;3.37;;
41887;SDS011;63122;52.424;13.458;2023-02-01T01:40:20;16.77;;;3.03;;
41887;SDS011;63122;52.424;13.458;2023-02-01T01:42:50;17.57;;;3.07;;
41887;SDS011;63122;52.424;13.458;2023-02-01T01:45:23;22.57;;;3.10;;
41887;SDS011;63122;52.424;13.458;2023-02-01T01:47:56;18.87;;;3.20;;
41887;SDS011;63122;52.424;13.458;2023-02-01T01:50:33;16.80;;;2.33;;
41887;SDS011;63122;52.424;13.458;2023-02-01T01:53:07;19.63;;;3.37;;
41887;SDS011;63122;52.424;13.458;2023-02-01T01:55:42;21.73;;;2.37;;
41887;SDS011;63122;52.424;13.458;2023-02-01T01:58:14;26.27;;;3.90;;
41887;SDS011;63122;52.424;13.458;2023-02-01T02:00:47;24.87;;;3.13;;
41887;SDS011;63122;52.424;13.458;2023-02-01T02:03:19;18.43;;;3.17;;
41887;SDS011;63122;52.424;13.458;2023-02-01T02:05:55;21.23;;;3.57;;
41887;SDS011;63122;52.424;13.458;2023-02-01T02:08:28;18.73;;;3.30;;
41887;SDS011;63122;52.424;13.458;2023-02-01T02:10:59;20.83;;;3.47;;
41887;SDS011;63122;52.424;13.458;2023-02-01T02:13:31;8.60;;;2.20;;
41887;SDS011;63122;52.424;13.458;2023-02-01T02:16:08;19.73;;;2.90;;
41887;SDS011;63122;52.424;13.458;2023-02-01T02:18:55;16.67;;;2.70;;
41887;SDS011;63122;52.424;13.458;2023-02-01T02:21:46;24.03;;;3.27;;
41887;SDS011;63122;52.424;13.458;2023-02-01T02:24:36;22.53;;;3.83;;
41887;SDS011;63122;52.424;13.458;2023-02-01T02:27:24;26.57;;;4.10;;
41887;SDS011;63122;52.424;13.458;2023-02-01T02:30:27;21.00;;;3.60;;
41887;SDS011;63122;52.424;13.458;2023-02-01T02:33:27;17.43;;;3.43;;
41887;SDS011;63122;52.424;13.458;2023-02-01T02:36:13;25.07;;;5.10;;
41887;SDS011;63122;52.424;13.458;2023-02-01T02:38:50;15.43;;;2.43;;
41887;SDS011;63122;52.424;13.458;2023-02-01T02:41:31;19.57;;;2.53;;
41887;SDS011;63122;52.424;13.458;2023-02-01T02:44:20;20.90;;;3.23;;
41887;SDS011;63122;52.424;13.458;2023-02-01T02:47:13;19.83;;;3.37;;
41887;SDS011;63122;52.424;13.458;2023-02-01T02:49:59;24.97;;;3.43;;
41887;SDS011;63122;52.424;13.458;2023-02-01T02:52:51;16.73;;;3.00;;
41887;SDS011;63122;52.424;13.458;2023-02-01T02:55:40;19.97;;;3.30;;
41887;SDS011;63122;52.424;13.458;2023-02-01T02:58:12;23.17;;;4.10;;
41887;SDS011;63122;52.424;13.458;2023-02-01T03:00:57;20.87;;;3.53;;
41887;SDS011;63122;52.424;13.458;2023-02-01T03:03:40;22.40;;;3.63;;
41887;SDS011;63122;52.424;13.458;2023-02-01T03:06:26;25.53;;;3.57;;
41887;SDS011;63122;52.424;13.458;2023-02-01T03:08:56;12.93;;;3.00;;
41887;SDS011;63122;52.424;13.458;2023-02-01T03:11:28;17.57;;;3.73;;
41887;SDS011;63122;52.424;13.458;2023-02-01T03:14:13;19.63;;;2.93;;
41887;SDS011;63122;52.424;13.458;2023-02-01T03:16:47;25.10;;;3.57;;
41887;SDS011;63122;52.424;13.458;2023-02-01T03:19:25;16.30;;;2.47;;
41887;SDS011;63122;52.424;13.458;2023-02-01T03:22:02;32.70;;;4.37;;
41887;SDS011;63122;52.424;13.458;2023-02-01T03:24:37;15.67;;;3.23;;
41887;SDS011;63122;52.424;13.458;2023-02-01T03:27:12;20.17;;;2.83;;
41887;SDS011;63122;52.424;13.458;2023-02-01T03:29:48;18.93;;;3.17;;
41887;SDS011;63122;52.424;13.458;2023-02-01T03:32:22;22.37;;;3.33;;
41887;SDS011;63122;52.424;13.458;2023-02-01T03:34:52;23.07;;;3.60;;
41887;SDS011;63122;52.424;13.458;2023-02-01T03:37:26;18.43;;;3.67;;
41887;SDS011;63122;52.424;13.458;2023-02-01T03:39:58;25.07;;;3.70;;
41887;SDS011;63122;52.424;13.458;2023-02-01T03:42:31;26.43;;;3.10;;
41887;SDS011;63122;52.424;13.458;2023-02-01T03:45:09;22.00;;;2.93;;
41887;SDS011;63122;52.424;13.458;2023-02-01T03:47:44;20.30;;;3.37;;
41887;SDS011;63122;52.424;13.458;2023-02-01T03:50:17;18.67;;;2.70;;
41887;SDS011;63122;52.424;13.458;2023-02-01T03:52:54;21.70;;;4.33;;
41887;SDS011;63122;52.424;13.458;2023-02-01T03:55:27;14.03;;;2.53;;
41887;SDS011;63122;52.424;13.458;2023-02-01T03:58:02;26.20;;;3.17;;
41887;SDS011;63122;52.424;13.458;2023-02-01T04:00:37;25.20;;;3.07;;
41887;SDS011;63122;52.424;13.458;2023-02-01T04:03:08;14.67;;;1.73;;
41887;SDS011;63122;52.424;13.458;2023-02-01T04:05:38;21.30;;;4.03;;
41887;SDS011;63122;52.424;13.458;2023-02-01T04:08:11;26.13;;;3.50;;
41887;SDS011;63122;52.424;13.458;2023-02-01T04:10:41;29.13;;;3.63;;
41887;SDS011;63122;52.424;13.458;2023-02-01T04:13:11;25.97;;;3.77;;
41887;SDS011;63122;52.424;13.458;2023-02-01T04:15:42;23.50;;;3.60;;
41887;SDS011;63122;52.424;13.458;2023-02-01T04:18:12;22.10;;;3.63;;
41887;SDS011;63122;52.424;13.458;2023-02-01T04:20:43;17.03;;;3.03;;
41887;SDS011;63122;52.424;13.458;2023-02-01T04:23:16;21.70;;;3.17;;
41887;SDS011;63122;52.424;13.458;2023-02-01T04:25:47;21.03;;;3.17;;
41887;SDS011;63122;52.424;13.458;2023-02-01T04:28:17;19.53;;;2.80;;
41887;SDS011;63122;52.424;13.458;2023-02-01T04:30:47;20.23;;;3.60;;
41887;SDS011;63122;52.424;13.458;2023-02-01T04:33:17;16.57;;;3.53;;
41887;SDS011;63122;52.424;13.458;2023-02-01T04:35:47;20.40;;;3.33;;
41887;SDS011;63122;52.424;13.458;2023-02-01T04:38:20;20.23;;;2.90;;
41887;SDS011;63122;52.424;13.458;2023-02-01T04:40:50;23.23;;;3.97;;
41887;SDS011;63122;52.424;13.458;2023-02-01T04:43:20;21.97;;;2.93;;
41887;SDS011;63122;52.424;13.458;2023-02-01T04:45:51;23.77;;;4.07;;
41887;SDS011;63122;52.424;13.458;2023-02-01T04:48:21;11.93;;;1.97;;
41887;SDS011;63122;52.424;13.458;2023-02-01T04:50:51;12.60;;;2.27;;
41887;SDS011;63122;52.424;13.458;2023-02-01T04:53:24;28.57;;;4.47;;
41887;SDS011;63122;52.424;13.458;2023-02-01T04:55:56;24.10;;;3.07;;
41887;SDS011;63122;52.424;13.458;2023-02-01T04:58:26;24.83;;;2.83;;
41887;SDS011;63122;52.424;13.458;2023-02-01T05:00:56;14.20;;;2.30;;
41887;SDS011;63122;52.424;13.458;2023-02-01T05:03:26;22.40;;;4.53;;
41887;SDS011;63122;52.424;13.458;2023-02-01T05:05:56;32.50;;;5.20;;
41887;SDS011;63122;52.424;13.458;2023-02-01T05:08:30;25.70;;;3.67;;
41887;SDS011;63122;52.424;13.458;2023-02-01T05:11:00;18.60;;;3.33;;
41887;SDS011;63122;52.424;13.458;2023-02-01T05:13:31;20.70;;;3.33;;
41887;SDS011;63122;52.424;13.458;2023-02-01T05:16:14;18.90;;;3.50;;
41887;SDS011;63122;52.424;13.458;2023-02-01T05:18:44;22.00;;;2.97;;
41887;SDS011;63122;52.424;13.458;2023-02-01T05:21:14;24.20;;;3.07;;
41887;SDS011;63122;52.424;13.458;2023-02-01T05:23:47;16.83;;;2.27;;
41887;SDS011;63122;52.424;13.458;2023-02-01T05:26:35;22.10;;;3.70;;
41887;SDS011;63122;52.424;13.458;2023-02-01T05:29:23;23.87;;;4.00;;
41887;SDS011;63122;52.424;13.458;2023-02-01T05:32:53;14.40;;;2.93;;
41887;SDS011;63122;52.424;13.458;2023-02-01T05:35:23;36.17;;;3.40;;
41887;SDS011;63122;52.424;13.458;2023-02-01T05:37:54;16.63;;;3.57;;
41887;SDS011;63122;52.424;13.458;2023-02-01T05:40:26;20.07;;;2.27;;
41887;SDS011;63122;52.424;13.458;2023-02-01T05:42:57;14.23;;;2.00;;
41887;SDS011;63122;52.424;13.458;2023-02-01T05:45:27;18.83;;;3.57;;
41887;SDS011;63122;52.424;13.458;2023-02-01T05:47:57;23.67;;;3.73;;
41887;SDS011;63122;52.424;13.458;2023-02-01T05:50:27;21.97;;;2.67;;
41887;SDS011;63122;52.424;13.458;2023-02-01T05:52:57;15.10;;;2.80;;
41887;SDS011;63122;52.424;13.458;2023-02-01T05:55:30;28.30;;;3.97;;
41887;SDS011;63122;52.424;13.458;2023-02-01T05:58:00;14.53;;;2.27;;
41887;SDS011;63122;52.424;13.458;2023-02-01T06:00:31;13.47;;;2.97;;
41887;SDS011;63122;52.424;13.458;2023-02-01T06:03:01;23.17;;;4.07;;
41887;SDS011;63122;52.424;13.458;2023-02-01T06:05:32;23.53;;;4.27;;
41887;SDS011;63122;52.424;13.458;2023-02-01T06:08:03;11.77;;;2.07;;
41887;SDS011;63122;52.424;13.458;2023-02-01T06:10:37;18.30;;;4.33;;
41887;SDS011;63122;52.424;13.458;2023-02-01T06:13:07;22.20;;;3.30;;
41887;SDS011;63122;52.424;13.458;2023-02-01T06:15:37;24.83;;;3.57;;
41887;SDS011;63122;52.424;13.458;2023-02-01T06:18:09;32.20;;;4.20;;
41887;SDS011;63122;52.424;13.458;2023-02-01T06:20:39;17.53;;;4.00;;
41887;SDS011;63122;52.424;13.458;2023-02-01T06:23:09;16.67;;;3.13;;
41887;SDS011;63122;52.424;13.458;2023-02-01T06:25:42;5.97;;;2.23;;
41887;SDS011;63122;52.424;13.458;2023-02-01T06:28:12;8.87;;;2.10;;
41887;SDS011;63122;52.424;13.458;2023-02-01T06:30:42;25.27;;;4.37;;
41887;SDS011;63122;52.424;13.458;2023-02-01T06:33:13;16.73;;;2.93;;
41887;SDS011;63122;52.424;13.458;2023-02-01T06:35:44;22.50;;;3.40;;
41887;SDS011;63122;52.424;13.458;2023-02-01T06:38:14;28.67;;;4.30;;
41887;SDS011;63122;52.424;13.458;2023-02-01T06:40:51;24.60;;;3.20;;
41887;SDS011;63122;52.424;13.458;2023-02-01T06:43:22;26.87;;;3.90;;
41887;SDS011;63122;52.424;13.458;2023-02-01T06:45:53;23.67;;;4.03;;
41887;SDS011;63122;52.424;13.458;2023-02-01T06:48:28;10.23;;;1.70;;
41887;SDS011;63122;52.424;13.458;2023-02-01T06:50:59;14.33;;;2.77;;
41887;SDS011;63122;52.424;13.458;2023-02-01T06:53:30;17.33;;;3.23;;
41887;SDS011;63122;52.424;13.458;2023-02-01T06:56:04;16.67;;;2.43;;
41887;SDS011;63122;52.424;13.458;2023-02-01T06:58:34;22.40;;;3.23;;
41887;SDS011;63122;52.424;13.458;2023-02-01T07:01:07;12.23;;;2.90;;
41887;SDS011;63122;52.424;13.458;2023-02-01T07:03:38;11.63;;;2.40;;
41887;SDS011;63122;52.424;13.458;2023-02-01T07:06:09;16.93;;;3.17;;
41887;SDS011;63122;52.424;13.458;2023-02-01T07:08:39;14.60;;;3.13;;
41887;SDS011;63122;52.424;13.458;2023-02-01T07:11:13;35.67;;;4.47;;
41887;SDS011;63122;52.424;13.458;2023-02-01T07:13:44;11.97;;;3.00;;
41887;SDS011;63122;52.424;13.458;2023-02-01T07:16:16;13.17;;;2.27;;
41887;SDS011;63122;52.424;13.458;2023-02-01T07:18:50;16.77;;;2.77;;
41887;SDS011;63122;52.424;13.458;2023-02-01T07:21:21;20.07;;;3.47;;
41887;SDS011;63122;52.424;13.458;2023-02-01T07:23:52;12.87;;;1.57;;
41887;SDS011;63122;52.424;13.458;2023-02-01T07:26:24;11.63;;;2.90;;
41887;SDS011;63122;52.424;13.458;2023-02-01T07:28:55;5.33;;;1.70;;
41887;SDS011;63122;52.424;13.458;2023-02-01T07:31:25;15.17;;;3.10;;
41887;SDS011;63122;52.424;13.458;2023-02-01T07:33:55;32.70;;;3.40;;
41887;SDS011;63122;52.424;13.458;2023-02-01T07:36:27;13.57;;;2.83;;
41887;SDS011;63122;52.424;13.458;2023-02-01T07:38:57;19.73;;;2.67;;
41887;SDS011;63122;52.424;13.458;2023-02-01T07:41:30;14.00;;;2.67;;
41887;SDS011;63122;52.424;13.458;2023-02-01T07:44:00;23.60;;;6.00;;
41887;SDS011;63122;52.424;13.458;2023-02-01T07:46:31;13.93;;;2.50;;
41887;SDS011;63122;52.424;13.458;2023-02-01T07:49:00;15.77;;;3.03;;
41887;SDS011;63122;52.424;13.458;2023-02-01T07:51:31;17.33;;;3.27;;
41887;SDS011;63122;52.424;13.458;2023-02-01T07:54:01;17.90;;;2.97;;
41887;SDS011;63122;52.424;13.458;2023-02-01T07:56:34;30.53;;;4.90;;
41887;SDS011;63122;52.424;13.458;2023-02-01T07:59:05;9.23;;;1.87;;
41887;SDS011;63122;52.424;13.458;2023-02-01T08:01:35;10.43;;;2.60;;
41887;SDS011;63122;52.424;13.458;2023-02-01T08:04:03;21.90;;;3.60;;
41887;SDS011;63122;52.424;13.458;2023-02-01T08:06:33;20.87;;;3.73;;
41887;SDS011;63122;52.424;13.458;2023-02-01T08:09:04;21.80;;;4.13;;
41887;SDS011;63122;52.424;13.458;2023-02-01T08:11:37;11.83;;;2.47;;
41887;SDS011;63122;52.424;13.458;2023-02-01T08:14:07;14.87;;;3.30;;
41887;SDS011;63122;52.424;13.458;2023-02-01T08:16:37;14.53;;;2.73;;
41887;SDS011;63122;52.424;13.458;2023-02-01T08:19:08;11.93;;;2.83;;
41887;SDS011;63122;52.424;13.458;2023-02-01T08:21:38;16.53;;;3.60;;
41887;SDS011;63122;52.424;13.458;2023-02-01T08:24:08;16.00;;;3.03;;
41887;SDS011;63122;52.424;13.458;2023-02-01T08:26:42;22.27;;;3.87;;
41887;SDS011;63122;52.424;13.458;2023-02-01T08:29:12;17.47;;;3.73;;
41887;SDS011;63122;52.424;13.458;2023-02-01T08:31:43;17.57;;;3.90;;
41887;SDS011;63122;52.424;13.458;2023-02-01T08:34:13;7.07;;;2.30;;
41887;SDS011;63122;52.424;13.458;2023-02-01T08:36:43;12.10;;;3.07;;
41887;SDS011;63122;52.424;13.458;2023-02-01T08:39:14;15.90;;;3.87;;
41887;SDS011;63122;52.424;13.458;2023-02-01T08:41:47;14.83;;;3.40;;
41887;SDS011;63122;52.424;13.458;2023-02-01T08:44:37;9.03;;;2.63;;
41887;SDS011;63122;52.424;13.458;2023-02-01T08:47:08;22.83;;;4.27;;
41887;SDS011;63122;52.424;13.458;2023-02-01T08:49:38;23.13;;;4.67;;
41887;SDS011;63122;52.424;13.458;2023-02-01T08:52:08;12.43;;;2.80;;
41887;SDS011;63122;52.424;13.458;2023-02-01T08:54:42;14.03;;;3.20;;
41887;SDS011;63122;52.424;13.458;2023-02-01T08:57:15;7.03;;;2.67;;
41887;SDS011;63122;52.424;13.458;2023-02-01T08:59:45;12.43;;;2.87;;
41887;SDS011;63122;52.424;13.458;2023-02-01T09:02:15;8.57;;;2.30;;
41887;SDS011;63122;52.424;13.458;2023-02-01T09:04:47;7.00;;;2.23;;
41887;SDS011;63122;52.424;13.458;2023-02-01T09:07:18;8.83;;;2.30;;
41887;SDS011;63122;52.424;13.458;2023-02-01T09:09:48;9.27;;;2.17;;
41887;SDS011;63122;52.424;13.458;2023-02-01T09:12:22;8.23;;;1.50;;
41887;SDS011;63122;52.424;13.458;2023-02-01T09:14:52;9.37;;;1.97;;
41887;SDS011;63122;52.424;13.458;2023-02-01T09:17:25;4.63;;;1.97;;
41887;SDS011;63122;52.424;13.458;2023-02-01T09:20:15;3.50;;;1.30;;
41887;SDS011;63122;52.424;13.458;2023-02-01T09:22:48;6.67;;;1.73;;
41887;SDS011;63122;52.424;13.458;2023-02-01T09:25:19;3.07;;;0.97;;
41887;SDS011;63122;52.424;13.458;2023-02-01T09:27:52;6.73;;;1.80;;
41887;SDS011;63122;52.424;13.458;2023-02-01T09:30:22;3.70;;;1.57;;
41887;SDS011;63122;52.424;13.458;2023-02-01T09:32:54;3.97;;;1.57;;
41887;SDS011;63122;52.424;13.458;2023-02-01T09:35:24;8.23;;;1.53;;
41887;SDS011;63122;52.424;13.458;2023-02-01T09:37:55;11.03;;;1.70;;
41887;SDS011;63122;52.424;13.458;2023-02-01T09:40:25;6.80;;;1.53;;
41887;SDS011;63122;52.424;13.458;2023-02-01T09:43:06;5.77;;;1.57;;
41887;SDS011;63122;52.424;13.458;2023-02-01T09:45:49;2.73;;;1.13;;
41887;SDS011;63122;52.424;13.458;2023-02-01T09:48:27;7.70;;;1.93;;
41887;SDS011;63122;52.424;13.458;2023-02-01T09:51:02;6.57;;;1.70;;
41887;SDS011;63122;52.424;13.458;2023-02-01T09:53:37;8.23;;;1.80;;
41887;SDS011;63122;52.424;13.458;2023-02-01T09:56:12;4.77;;;0.83;;
41887;SDS011;63122;52.424;13.458;2023-02-01T09:58:47;7.33;;;1.80;;
41887;SDS011;63122;52.424;13.458;2023-02-01T10:01:24;5.10;;;1.53;;
41887;SDS011;63122;52.424;13.458;2023-02-01T10:03:57;9.10;;;2.03;;
41887;SDS011;63122;52.424;13.458;2023-02-01T10:06:41;10.83;;;1.80;;
41887;SDS011;63122;52.424;13.458;2023-02-01T10:09:33;4.57;;;1.10;;
41887;SDS011;63122;52.424;13.458;2023-02-01T10:15:24;3.43;;;1.23;;
41887;SDS011;63122;52.424;13.458;2023-02-01T10:18:23;5.20;;;1.50;;
41887;SDS011;63122;52.424;13.458;2023-02-01T10:21:05;8.27;;;2.23;;
41887;SDS011;63122;52.424;13.458;2023-02-01T10:23:48;4.17;;;1.43;;
41887;SDS011;63122;52.424;13.458;2023-02-01T10:26:45;7.17;;;2.80;;
41887;SDS011;63122;52.424;13.458;2023-02-01T10:36:32;6.30;;;1.40;;
41887;SDS011;63122;52.424;13.458;2023-02-01T10:39:36;5.43;;;1.67;;
41887;SDS011;63122;52.424;13.458;2023-02-01T10:43:45;5.57;;;1.33;;
41887;SDS011;63122;52.424;13.458;2023-02-01T10:45:58;3.53;;;1.20;;
41887;SDS011;63122;52.424;13.458;2023-02-01T10:56:28;3.80;;;1.20;;
41887;SDS011;63122;52.424;13.458;2023-02-01T10:59:14;9.40;;;1.77;;
41887;SDS011;63122;52.424;13.458;2023-02-01T11:01:57;10.90;;;1.60;;
41887;SDS011;63122;52.424;13.458;2023-02-01T11:04:30;11.37;;;2.13;;
41887;SDS011;63122;52.424;13.458;2023-02-01T11:07:05;15.80;;;5.23;;
41887;SDS011;63122;52.424;13.458;2023-02-01T11:09:40;13.40;;;1.77;;
41887;SDS011;63122;52.424;13.458;2023-02-01T11:12:23;8.07;;;2.03;;
41887;SDS011;63122;52.424;13.458;2023-02-01T11:14:58;6.27;;;1.37;;
41887;SDS011;63122;52.424;13.458;2023-02-01T11:17:46;15.90;;;2.67;;
41887;SDS011;63122;52.424;13.458;2023-02-01T11:20:42;13.73;;;2.33;;
41887;SDS011;63122;52.424;13.458;2023-02-01T11:24:18;7.87;;;1.77;;
41887;SDS011;63122;52.424;13.458;2023-02-01T11:27:27;9.63;;;1.80;;
41887;SDS011;63122;52.424;13.458;2023-02-01T11:29:59;11.93;;;2.17;;
41887;SDS011;63122;52.424;13.458;2023-02-01T11:32:31;8.60;;;1.93;;
41887;SDS011;63122;52.424;13.458;2023-02-01T11:35:11;10.20;;;2.20;;
41887;SDS011;63122;52.424;13.458;2023-02-01T11:37:49;6.47;;;1.00;;
41887;SDS011;63122;52.424;13.458;2023-02-01T11:40:26;9.90;;;1.80;;
41887;SDS011;63122;52.424;13.458;2023-02-01T11:43:06;3.83;;;1.20;;
41887;SDS011;63122;52.424;13.458;2023-02-01T11:45:39;9.33;;;2.60;;
41887;SDS011;63122;52.424;13.458;2023-02-01T11:48:14;11.53;;;2.10;;
41887;SDS011;63122;52.424;13.458;2023-02-01T11:50:57;12.33;;;3.23;;
41887;SDS011;63122;52.424;13.458;2023-02-01T11:54:01;7.80;;;2.00;;
41887;SDS011;63122;52.424;13.458;2023-02-01T11:56:42;7.60;;;1.50;;
41887;SDS011;63122;52.424;13.458;2023-02-01T11:59:33;5.77;;;1.60;;
41887;SDS011;63122;52.424;13.458;2023-02-01T12:05:35;4.73;;;1.40;;
41887;SDS011;63122;52.424;13.458;2023-02-01T12:08:23;7.60;;;1.60;;
41887;SDS011;63122;52.424;13.458;2023-02-01T12:11:08;8.87;;;2.27;;
41887;SDS011;63122;52.424;13.458;2023-02-01T12:13:55;3.37;;;0.90;;
41887;SDS011;63122;52.424;13.458;2023-02-01T12:16:40;11.43;;;1.90;;
41887;SDS011;63122;52.424;13.458;2023-02-01T12:19:23;10.20;;;1.90;;
41887;SDS011;63122;52.424;13.458;2023-02-01T12:22:19;10.23;;;1.90;;
41887;SDS011;63122;52.424;13.458;2023-02-01T12:25:10;9.40;;;1.97;;
41887;SDS011;63122;52.424;13.458;2023-02-01T12:28:01;8.83;;;1.80;;
41887;SDS011;63122;52.424;13.458;2023-02-01T12:30:53;15.70;;;2.30;;
41887;SDS011;63122;52.424;13.458;2023-02-01T12:33:43;5.17;;;1.93;;
41887;SDS011;63122;52.424;13.458;2023-02-01T12:36:23;9.83;;;2.33;;
41887;SDS011;63122;52.424;13.458;2023-02-01T12:39:03;9.57;;;1.47;;
41887;SDS011;63122;52.424;13.458;2023-02-01T12:44:39;10.50;;;2.27;;
41887;SDS011;63122;52.424;13.458;2023-02-01T12:47:15;12.73;;;1.83;;
41887;SDS011;63122;52.424;13.458;2023-02-01T12:49:56;10.90;;;2.33;;
41887;SDS011;63122;52.424;13.458;2023-02-01T12:52:32;3.87;;;1.90;;
41887;SDS011;63122;52.424;13.458;2023-02-01T12:55:10;14.53;;;3.63;;
41887;SDS011;63122;52.424;13.458;2023-02-01T12:57:48;10.60;;;2.50;;
41887;SDS011;63122;52.424;13.458;2023-02-01T13:00:23;9.27;;;2.50;;
41887;SDS011;63122;52.424;13.458;2023-02-01T13:03:00;5.27;;;1.43;;
41887;SDS011;63122;52.424;13.458;2023-02-01T13:05:40;6.47;;;1.60;;
41887;SDS011;63122;52.424;13.458;2023-02-01T13:08:20;3.43;;;1.03;;
41887;SDS011;63122;52.424;13.458;2023-02-01T13:10:56;9.17;;;1.93;;
41887;SDS011;63122;52.424;13.458;2023-02-01T13:13:31;6.30;;;1.83;;
41887;SDS011;63122;52.424;13.458;2023-02-01T13:16:21;5.73;;;1.40;;
41887;SDS011;63122;52.424;13.458;2023-02-01T13:22:05;5.20;;;1.47;;
41887;SDS011;63122;52.424;13.458;2023-02-01T13:24:40;7.03;;;1.80;;
41887;SDS011;63122;52.424;13.458;2023-02-01T13:27:14;14.73;;;2.13;;
41887;SDS011;63122;52.424;13.458;2023-02-01T13:29:47;9.93;;;2.00;;
41887;SDS011;63122;52.424;13.458;2023-02-01T13:32:38;7.17;;;2.23;;
41887;SDS011;63122;52.424;13.458;2023-02-01T13:35:43;9.77;;;2.07;;
41887;SDS011;63122;52.424;13.458;2023-02-01T13:38:51;9.17;;;2.00;;
41887;SDS011;63122;52.424;13.458;2023-02-01T13:41:52;9.90;;;2.33;;
41887;SDS011;63122;52.424;13.458;2023-02-01T13:44:26;7.30;;;1.80;;
41887;SDS011;63122;52.424;13.458;2023-02-01T13:47:01;7.70;;;1.90;;
41887;SDS011;63122;52.424;13.458;2023-02-01T13:49:37;8.70;;;1.67;;
41887;SDS011;63122;52.424;13.458;2023-02-01T13:52:18;8.73;;;1.90;;
41887;SDS011;63122;52.424;13.458;2023-02-01T13:58:02;9.63;;;1.63;;
41887;SDS011;63122;52.424;13.458;2023-02-01T14:00:36;13.07;;;1.70;;
41887;SDS011;63122;52.424;13.458;2023-02-01T14:03:10;13.60;;;2.17;;
41887;SDS011;63122;52.424;13.458;2023-02-01T14:08:46;14.23;;;2.07;;
41887;SDS011;63122;52.424;13.458;2023-02-01T14:11:44;13.27;;;2.47;;
41887;SDS011;63122;52.424;13.458;2023-02-01T14:26:13;9.80;;;2.20;;
41887;SDS011;63122;52.424;13.458;2023-02-01T14:31:51;4.17;;;1.87;;
41887;SDS011;63122;52.424;13.458;2023-02-01T14:34:34;10.93;;;2.70;;
41887;SDS011;63122;52.424;13.458;2023-02-01T14:37:11;9.97;;;1.90;;
41887;SDS011;63122;52.424;13.458;2023-02-01T14:39:54;7.63;;;1.57;;
41887;SDS011;63122;52.424;13.458;2023-02-01T14:42:28;8.50;;;2.17;;
41887;SDS011;63122;52.424;13.458;2023-02-01T14:51:06;14.83;;;2.30;;
41887;SDS011;63122;52.424;13.458;2023-02-01T14:53:37;7.93;;;1.93;;
41887;SDS011;63122;52.424;13.458;2023-02-01T14:56:11;12.37;;;1.97;;
41887;SDS011;63122;52.424;13.458;2023-02-01T14:58:48;16.10;;;1.57;;
41887;SDS011;63122;52.424;13.458;2023-02-01T15:01:26;14.93;;;2.70;;
41887;SDS011;63122;52.424;13.458;2023-02-01T15:04:00;6.37;;;2.30;;
41887;SDS011;63122;52.424;13.458;2023-02-01T15:06:39;5.73;;;1.20;;
41887;SDS011;63122;52.424;13.458;2023-02-01T15:09:14;9.47;;;3.23;;
41887;SDS011;63122;52.424;13.458;2023-02-01T15:11:55;10.27;;;1.90;;
41887;SDS011;63122;52.424;13.458;2023-02-01T15:14:30;10.97;;;2.30;;
41887;SDS011;63122;52.424;13.458;2023-02-01T15:17:01;6.93;;;1.83;;
41887;SDS011;63122;52.424;13.458;2023-02-01T15:19:52;15.33;;;2.90;;
41887;SDS011;63122;52.424;13.458;2023-02-01T15:22:27;5.83;;;1.67;;
41887;SDS011;63122;52.424;13.458;2023-02-01T15:24:59;8.97;;;1.37;;
41887;SDS011;63122;52.424;13.458;2023-02-01T15:27:31;3.07;;;0.90;;
41887;SDS011;63122;52.424;13.458;2023-02-01T15:30:06;1.73;;;0.70;;
41887;SDS011;63122;52.424;13.458;2023-02-01T15:32:39;6.60;;;1.30;;
41887;SDS011;63122;52.424;13.458;2023-02-01T15:38:28;4.63;;;1.73;;
41887;SDS011;63122;52.424;13.458;2023-02-01T15:41:06;5.93;;;1.63;;
41887;SDS011;63122;52.424;13.458;2023-02-01T15:43:41;10.87;;;1.97;;
41887;SDS011;63122;52.424;13.458;2023-02-01T15:46:15;12.13;;;1.97;;
41887;SDS011;63122;52.424;13.458;2023-02-01T15:48:52;7.70;;;1.80;;
41887;SDS011;63122;52.424;13.458;2023-02-01T15:51:24;8.47;;;2.60;;
41887;SDS011;63122;52.424;13.458;2023-02-01T15:54:01;3.93;;;1.93;;
41887;SDS011;63122;52.424;13.458;2023-02-01T15:56:36;8.00;;;1.70;;
41887;SDS011;63122;52.424;13.458;2023-02-01T15:59:13;5.50;;;1.90;;
41887;SDS011;63122;52.424;13.458;2023-02-01T16:01:46;9.77;;;2.73;;
41887;SDS011;63122;52.424;13.458;2023-02-01T16:04:19;5.40;;;1.57;;
41887;SDS011;63122;52.424;13.458;2023-02-01T16:06:52;6.20;;;1.67;;
41887;SDS011;63122;52.424;13.458;2023-02-01T16:09:36;6.70;;;1.67;;
41887;SDS011;63122;52.424;13.458;2023-02-01T16:12:20;4.63;;;1.77;;
41887;SDS011;63122;52.424;13.458;2023-02-01T16:15:03;5.13;;;1.90;;
41887;SDS011;63122;52.424;13.458;2023-02-01T16:17:34;5.50;;;2.00;;